Portada
METAR-TAF:

METAR-TAF

Aeropuertos :

Helsinki, Finlandia

Aeropuerto de Helsinki-Vantaa

latitud: 60-19N, longitud: 024-58E, altitud: 51 m

Observación

El informe se hizo hace 39 minutos, a las 21:20 UTC
Viento 6 kt del noreste
Temperatura 9°C
Humedad 93%
Presión 1032 hPa
Visibilidad 10 km o más
sin nubes por debajo de 1500 m y sin presencia de cumulonimbus.

METAR: EFHK 232120Z 04006KT CAVOK 09/08 Q1032 NOSIG

Hora: 00:59 (21:59 UTC)

Pronóstico

El informe se hizo hace 1 hora y 33 minutos, a las 20:26 UTC
Pronóstico válido del 23 a las 21 UTC al 24 a las 21 UTC
Viento 7 kt del este-noreste
Visibilidad 10 km o más
sin nubes por debajo de 1500 m y sin presencia de cumulonimbus.
Probabilidad 30%
del 23 a las 23 UTC al 24 a las 07 UTC
Visibilidad: 0800 m
niebla en bancos

TAF: EFHK 232026Z 2321/2421 06007KT CAVOK PROB30 2323/2407 0800 BCFG

Observaciones y pronósticos meteorológicos de más de 4000 aeropuertos (mensajes METAR y TAF).

Los puntos amarillos y rojos representan las estaciones disponibles.

Ponga el ratón en el punto deseado para ver el nombre de la estación.

Haga clic para ver las observaciones y los pronósticos meteorológicos.

Para cambiar el mapa : haga clic en los botones verdes con una cruz de color negro para hacer un zoom, en el botón verde con un guión para alejar o en las flechas verdes para mapas adyacentes.


METAR-TAF: